createdAt,value
2022-08-04T00:02:27.282Z,100449.75
2022-08-04T00:05:00.484Z,100454.88
2022-08-04T00:07:48.343Z,100454.25
2022-08-04T00:10:18.833Z,100449.75
2022-08-04T00:12:50.055Z,100444.44
2022-08-04T00:15:17.978Z,100443.31
2022-08-04T00:18:04.476Z,100447.75
2022-08-04T00:20:33.988Z,100442.50
2022-08-04T00:23:02.291Z,100451.53
2022-08-04T00:25:29.117Z,100449.66
2022-08-04T00:27:56.225Z,100450.03
2022-08-04T00:30:22.915Z,100443.06
2022-08-04T00:32:49.625Z,100452.94
2022-08-04T00:35:17.665Z,100447.25
2022-08-04T00:37:45.619Z,100452.16
2022-08-04T00:40:12.632Z,100456.31
2022-08-04T00:42:59.337Z,100450.66
2022-08-04T00:46:15.885Z,100457.81
2022-08-04T00:48:54.578Z,100465.72
2022-08-04T00:51:30.227Z,100461.50
2022-08-04T00:54:11.787Z,100460.00
2022-08-04T00:57:30.045Z,100466.69
2022-08-04T01:00:03.959Z,100457.59
2022-08-04T01:02:48.091Z,100468.13
2022-08-04T01:05:37.864Z,100471.41
2022-08-04T01:08:23.394Z,100471.81
2022-08-04T01:11:08.216Z,100466.53
2022-08-04T01:14:00.795Z,100467.94
2022-08-04T01:16:28.856Z,100465.97
2022-08-04T01:19:35.219Z,100470.38
2022-08-04T01:22:18.783Z,100467.88
2022-08-04T01:24:59.494Z,100469.56
2022-08-04T01:28:05.187Z,100465.97
2022-08-04T01:30:34.606Z,100465.91
2022-08-04T01:33:04.922Z,100476.31
2022-08-04T01:35:48.877Z,100467.03
2022-08-04T01:38:26.151Z,100468.72
2022-08-04T01:40:56.908Z,100468.41
2022-08-04T01:43:24.525Z,100467.38
2022-08-04T01:45:58.050Z,100462.97
2022-08-04T01:48:26.120Z,100462.78
2022-08-04T01:50:54.368Z,100466.56
2022-08-04T01:53:21.479Z,100460.63
2022-08-04T01:55:55.598Z,100457.72
2022-08-04T01:58:23.425Z,100462.97
2022-08-04T02:01:08.946Z,100461.75
2022-08-04T02:04:20.426Z,100459.69
2022-08-04T02:07:03.800Z,100461.19
2022-08-04T02:09:54.986Z,100462.88
2022-08-04T02:12:26.082Z,100457.44
2022-08-04T02:15:22.348Z,100458.72
2022-08-04T02:17:57.262Z,100455.63
2022-08-04T02:20:29.135Z,100454.41
2022-08-04T02:23:43.151Z,100449.16
2022-08-04T02:26:22.612Z,100456.09
2022-08-04T02:29:03.765Z,100452.16
2022-08-04T02:31:43.258Z,100461.66
2022-08-04T02:34:13.877Z,100452.72
2022-08-04T02:36:41.691Z,100453.16
2022-08-04T02:39:09.869Z,100446.50
2022-08-04T02:41:40.016Z,100458.91
2022-08-04T02:44:10.350Z,100459.38
2022-08-04T02:46:39.083Z,100447.78
2022-08-04T02:49:07.862Z,100453.72
2022-08-04T02:51:36.735Z,100447.22
2022-08-04T02:54:06.790Z,100456.94
2022-08-04T02:56:38.632Z,100445.63
2022-08-04T02:59:08.260Z,100449.84
2022-08-04T03:01:35.293Z,100444.41
2022-08-04T03:04:28.797Z,100445.44
2022-08-04T03:07:16.727Z,100449.66
2022-08-04T03:10:14.480Z,100453.44
2022-08-04T03:13:02.740Z,100454.66
2022-08-04T03:16:08.226Z,100452.78
2022-08-04T03:18:46.832Z,100452.78
2022-08-04T03:21:19.328Z,100450.03
2022-08-04T03:24:10.374Z,100454.66
2022-08-04T03:26:48.989Z,100456.81
2022-08-04T03:29:37.614Z,100452.66
2022-08-04T03:32:31.939Z,100455.00
2022-08-04T03:35:40.380Z,100459.03
2022-08-04T03:38:45.155Z,100455.94
2022-08-04T03:41:51.325Z,100453.00
2022-08-04T03:44:20.864Z,100457.91
2022-08-04T03:46:56.441Z,100456.84
2022-08-04T03:49:35.065Z,100457.31
2022-08-04T03:52:34.712Z,100463.41
2022-08-04T03:55:25.403Z,100461.81
2022-08-04T03:58:31.868Z,100464.78
2022-08-04T04:02:01.133Z,100467.75
2022-08-04T04:04:30.622Z,100466.34
2022-08-04T04:07:12.383Z,100474.78
2022-08-04T04:10:05.864Z,100466.88
2022-08-04T04:12:41.738Z,100467.75
2022-08-04T04:15:35.494Z,100467.16
2022-08-04T04:18:33.760Z,100466.59
2022-08-04T04:21:35.542Z,100466.63
2022-08-04T04:24:32.846Z,100466.53
2022-08-04T04:27:27.822Z,100470.34
2022-08-04T04:30:19.170Z,100471.28
2022-08-04T04:33:34.923Z,100473.22
2022-08-04T04:36:25.279Z,100474.09
2022-08-04T04:39:03.323Z,100477.91
2022-08-04T04:41:41.626Z,100475.41
2022-08-04T04:44:08.082Z,100473.56
2022-08-04T04:47:06.914Z,100478.44
2022-08-04T04:49:44.916Z,100479.13
2022-08-04T04:52:27.213Z,100472.00
2022-08-04T04:55:21.790Z,100473.09
2022-08-04T04:57:54.770Z,100484.25
2022-08-04T05:00:26.340Z,100481.75
2022-08-04T05:03:00.405Z,100482.00
2022-08-04T05:05:48.691Z,100478.47
2022-08-04T05:08:45.317Z,100485.84
2022-08-04T05:11:32.379Z,100484.00
2022-08-04T05:14:36.506Z,100489.50
2022-08-04T05:17:15.867Z,100493.09
2022-08-04T05:20:04.438Z,100497.13
2022-08-04T05:22:39.456Z,100499.69
2022-08-04T05:25:17.687Z,100497.38
2022-08-04T05:27:56.291Z,100501.16
2022-08-04T05:30:27.275Z,100499.50
2022-08-04T05:33:00.992Z,100506.03
2022-08-04T05:35:53.988Z,100501.41
2022-08-04T05:38:25.068Z,100504.00
2022-08-04T05:40:52.897Z,100505.28
2022-08-04T05:43:22.647Z,100508.84
2022-08-04T05:45:51.578Z,100507.00
2022-08-04T05:48:18.854Z,100509.31
2022-08-04T05:50:46.559Z,100514.16
2022-08-04T05:53:16.741Z,100511.81
2022-08-04T05:55:49.033Z,100510.75
2022-08-04T05:58:29.544Z,100516.03
2022-08-04T06:00:58.387Z,100513.25
2022-08-04T06:03:29.008Z,100513.09
2022-08-04T06:05:57.693Z,100521.28
2022-08-04T06:08:25.099Z,100520.22
2022-08-04T06:10:54.555Z,100514.94
2022-08-04T06:13:48.150Z,100517.66
2022-08-04T06:16:30.311Z,100515.72
2022-08-04T06:19:59.592Z,100514.41
2022-08-04T06:21:50.000Z,100513.31
2022-08-04T06:24:20.493Z,100512.25
2022-08-04T06:26:49.543Z,100512.22
2022-08-04T06:29:26.996Z,100513.06
2022-08-04T06:32:27.210Z,100520.22
2022-08-04T06:34:50.959Z,100515.31
2022-08-04T06:37:41.215Z,100513.34
2022-08-04T06:40:31.512Z,100519.22
2022-08-04T06:42:56.121Z,100520.84
2022-08-04T06:45:24.144Z,100513.63
2022-08-04T06:47:51.112Z,100508.91
2022-08-04T06:51:25.476Z,100508.84
2022-08-04T06:53:06.898Z,100511.97
2022-08-04T06:55:35.131Z,100505.34
2022-08-04T06:58:03.536Z,100514.41
2022-08-04T07:00:32.328Z,100505.84
2022-08-04T07:03:00.919Z,100518.47
2022-08-04T07:05:28.368Z,100505.28
2022-08-04T07:07:57.096Z,100500.31
2022-08-04T07:10:27.745Z,100505.50
2022-08-04T07:12:56.615Z,100506.31
2022-08-04T07:15:23.666Z,100509.81
2022-08-04T07:17:52.292Z,100504.88
2022-08-04T07:20:34.477Z,100512.22
2022-08-04T07:23:04.128Z,100510.22
2022-08-04T07:26:00.107Z,100504.78
2022-08-04T07:28:17.806Z,100505.91
2022-08-04T07:30:45.581Z,100503.06
2022-08-04T07:33:12.599Z,100501.66
2022-08-04T07:36:03.744Z,100503.25
2022-08-04T07:38:27.691Z,100496.38
2022-08-04T07:40:55.535Z,100493.28
2022-08-04T07:43:23.172Z,100492.69
2022-08-04T07:45:50.025Z,100490.44
2022-08-04T07:48:18.897Z,100499.22
2022-08-04T07:50:46.879Z,100489.25
2022-08-04T07:53:54.851Z,100487.00
2022-08-04T07:56:02.772Z,100486.88
2022-08-04T07:58:30.244Z,100488.25
2022-08-04T08:00:58.046Z,100491.22
2022-08-04T08:03:27.324Z,100478.75
2022-08-04T08:05:54.721Z,100483.44
2022-08-04T08:08:40.989Z,100496.59
2022-08-04T08:11:09.357Z,100484.94
2022-08-04T08:13:37.054Z,100487.34
2022-08-04T08:16:05.374Z,100491.88
2022-08-04T08:18:32.028Z,100489.97
2022-08-04T08:20:58.685Z,100497.25
2022-08-04T08:23:26.515Z,100485.22
2022-08-04T08:25:54.326Z,100486.53
2022-08-04T08:28:20.997Z,100486.13
2022-08-04T08:30:52.604Z,100489.09
2022-08-04T08:33:21.207Z,100486.59
2022-08-04T08:35:53.782Z,100485.69
2022-08-04T08:38:33.581Z,100485.88
2022-08-04T08:41:27.759Z,100488.31
2022-08-04T08:44:37.516Z,100488.47
2022-08-04T08:47:30.502Z,100486.69
2022-08-04T08:50:47.566Z,100484.75
2022-08-04T08:53:31.202Z,100486.03
2022-08-04T08:56:30.941Z,100484.00
2022-08-04T08:59:15.079Z,100468.69
2022-08-04T09:01:57.322Z,100486.03
2022-08-04T09:04:51.863Z,100486.16
2022-08-04T09:07:30.455Z,100475.91
2022-08-04T09:10:16.282Z,100481.59
2022-08-04T09:12:57.890Z,100483.94
2022-08-04T09:15:39.749Z,100488.44
2022-08-04T09:18:31.346Z,100473.59
2022-08-04T09:21:30.771Z,100472.94
2022-08-04T09:24:05.044Z,100478.09
2022-08-04T09:27:00.908Z,100476.31
2022-08-04T09:29:45.743Z,100475.88
2022-08-04T09:32:23.578Z,100465.91
2022-08-04T09:35:20.431Z,100473.84
2022-08-04T09:38:10.273Z,100474.97
2022-08-04T09:40:58.851Z,100476.44
2022-08-04T09:44:42.342Z,100470.34
2022-08-04T09:46:27.844Z,100464.84
2022-08-04T09:49:07.684Z,100458.50
2022-08-04T09:51:59.027Z,100455.25
2022-08-04T09:54:48.947Z,100451.66
2022-08-04T09:57:15.500Z,100452.84
2022-08-04T10:00:09.259Z,100449.81
2022-08-04T10:02:44.365Z,100447.59
2022-08-04T10:05:19.739Z,100446.28
2022-08-04T10:08:16.423Z,100441.81
2022-08-04T10:11:00.377Z,100439.06
2022-08-04T10:13:53.361Z,100435.72
2022-08-04T10:16:45.142Z,100436.59
2022-08-04T10:19:35.311Z,100442.97
2022-08-04T10:22:50.019Z,100430.16
2022-08-04T10:26:06.251Z,100425.44
2022-08-04T10:28:45.834Z,100427.06
2022-08-04T10:31:20.858Z,100423.97
2022-08-04T10:33:57.843Z,100422.84
2022-08-04T10:36:30.327Z,100425.28
2022-08-04T10:39:41.759Z,100419.06
2022-08-04T10:42:03.500Z,100411.19
2022-08-04T10:44:48.660Z,100417.91
2022-08-04T10:47:20.178Z,100419.06
2022-08-04T10:49:54.377Z,100402.97
2022-08-04T10:52:33.797Z,100404.91
2022-08-04T10:56:07.777Z,100397.84
2022-08-04T10:58:47.792Z,100405.25
2022-08-04T11:02:01.397Z,100400.97
2022-08-04T11:04:35.556Z,100391.78
2022-08-04T11:07:02.631Z,100392.00
2022-08-04T11:09:31.674Z,100386.00
2022-08-04T11:12:07.119Z,100390.88
2022-08-04T11:14:36.798Z,100387.06
2022-08-04T11:17:11.315Z,100390.50
2022-08-04T11:19:53.285Z,100390.38
2022-08-04T11:22:23.456Z,100391.63
2022-08-04T11:25:03.233Z,100387.53
2022-08-04T11:27:40.427Z,100380.13
2022-08-04T11:30:08.961Z,100381.38
2022-08-04T11:33:09.407Z,100377.81
2022-08-04T11:35:44.563Z,100369.06
2022-08-04T11:38:43.683Z,100376.25
2022-08-04T11:41:18.706Z,100380.09
2022-08-04T11:44:00.713Z,100381.59
2022-08-04T11:46:44.097Z,100370.19
2022-08-04T11:49:15.522Z,100371.84
2022-08-04T11:51:44.538Z,100366.22
2022-08-04T11:54:12.824Z,100364.91
2022-08-04T11:56:39.688Z,100354.84
2022-08-04T11:59:10.140Z,100354.16
2022-08-04T12:01:44.432Z,100352.44
2022-08-04T12:04:24.350Z,100350.47
2022-08-04T12:07:33.052Z,100338.22
2022-08-04T12:10:43.363Z,100337.00
2022-08-04T12:13:31.716Z,100340.72
2022-08-04T12:16:10.808Z,100335.81
2022-08-04T12:18:47.300Z,100333.84
2022-08-04T12:21:55.964Z,100327.06
2022-08-04T12:24:33.547Z,100320.16
2022-08-04T12:27:13.839Z,100328.19
2022-08-04T12:29:41.560Z,100319.63
2022-08-04T12:32:33.005Z,100319.41
2022-08-04T12:35:21.822Z,100318.06
2022-08-04T12:38:08.606Z,100322.31
2022-08-04T12:40:46.976Z,100309.78
2022-08-04T12:43:20.178Z,100311.44
2022-08-04T12:45:49.833Z,100320.25
2022-08-04T12:48:21.436Z,100311.44
2022-08-04T12:50:51.204Z,100308.22
2022-08-04T12:53:31.519Z,100306.03
2022-08-04T12:56:01.716Z,100305.97
2022-08-04T12:58:42.046Z,100302.69
2022-08-04T13:02:10.155Z,100306.03
2022-08-04T13:04:29.297Z,100308.59
2022-08-04T13:07:10.763Z,100306.41
2022-08-04T13:09:38.424Z,100306.44
2022-08-04T13:12:13.718Z,100303.66
2022-08-04T13:14:44.482Z,100300.22
2022-08-04T13:17:12.260Z,100299.00
2022-08-04T13:19:41.439Z,100298.56
2022-08-04T13:22:09.256Z,100291.63
2022-08-04T13:24:56.681Z,100294.72
2022-08-04T13:27:25.838Z,100288.88
2022-08-04T13:29:58.745Z,100269.63
2022-08-04T13:32:31.021Z,100275.41
2022-08-04T13:35:00.363Z,100265.34
2022-08-04T13:37:38.868Z,100268.31
2022-08-04T13:40:09.270Z,100260.91
2022-08-04T13:42:38.964Z,100261.00
2022-08-04T13:45:08.362Z,100260.06
2022-08-04T13:47:38.227Z,100254.47
2022-08-04T13:50:13.813Z,100258.44
2022-08-04T13:52:42.820Z,100273.41
2022-08-04T13:55:19.910Z,100264.06
2022-08-04T13:57:52.375Z,100262.78
2022-08-04T14:00:29.911Z,100255.03
2022-08-04T14:03:23.281Z,100251.16
2022-08-04T14:06:29.095Z,100257.16
2022-08-04T14:08:58.710Z,100246.94
2022-08-04T14:12:09.922Z,100239.19
2022-08-04T14:14:30.000Z,100237.47
2022-08-04T14:17:05.714Z,100233.97
2022-08-04T14:20:07.246Z,100234.66
2022-08-04T14:22:36.615Z,100230.22
2022-08-04T14:25:16.738Z,100238.41
2022-08-04T14:27:55.915Z,100227.28
2022-08-04T14:30:36.936Z,100237.69
2022-08-04T14:34:02.041Z,100231.09
2022-08-04T14:36:04.133Z,100229.41
2022-08-04T14:38:58.529Z,100230.81
2022-08-04T14:41:31.530Z,100228.78
2022-08-04T14:44:00.807Z,100222.53
2022-08-04T14:46:36.279Z,100227.69
2022-08-04T14:49:10.225Z,100220.16
2022-08-04T14:51:59.014Z,100227.84
2022-08-04T14:54:35.870Z,100220.47
2022-08-04T14:57:06.466Z,100225.09
2022-08-04T15:00:01.604Z,100221.50
2022-08-04T15:02:30.515Z,100225.38
2022-08-04T15:04:57.761Z,100221.97
2022-08-04T15:07:24.797Z,100227.38
2022-08-04T15:09:53.925Z,100224.91
2022-08-04T15:12:21.206Z,100218.78
2022-08-04T15:14:48.010Z,100217.19
2022-08-04T15:17:29.202Z,100213.16
2022-08-04T15:19:57.312Z,100220.47
2022-08-04T15:22:24.071Z,100211.09
2022-08-04T15:24:54.911Z,100211.81
2022-08-04T15:27:26.612Z,100211.13
2022-08-04T15:30:01.618Z,100211.34
2022-08-04T15:32:32.062Z,100208.50
2022-08-04T15:35:30.822Z,100206.13
2022-08-04T15:38:24.058Z,100195.63
2022-08-04T15:41:08.046Z,100203.47
2022-08-04T15:43:40.436Z,100204.31
2022-08-04T15:46:43.440Z,100197.06
2022-08-04T15:48:56.085Z,100198.22
2022-08-04T15:51:32.091Z,100195.22
2022-08-04T15:54:03.483Z,100191.66
2022-08-04T15:56:34.916Z,100194.84
2022-08-04T15:59:01.455Z,100195.03
2022-08-04T16:01:28.268Z,100187.94
2022-08-04T16:03:59.894Z,100183.09
2022-08-04T16:06:29.086Z,100177.22
2022-08-04T16:09:04.124Z,100180.22
2022-08-04T16:11:32.595Z,100193.03
2022-08-04T16:13:59.632Z,100190.66
2022-08-04T16:16:38.567Z,100186.97
2022-08-04T16:19:35.329Z,100179.91
2022-08-04T16:22:03.871Z,100186.56
2022-08-04T16:24:36.235Z,100184.84
2022-08-04T16:27:13.729Z,100188.69
2022-08-04T16:29:47.925Z,100186.94
2022-08-04T16:32:20.616Z,100182.69
2022-08-04T16:34:55.477Z,100184.44
2022-08-04T16:37:37.841Z,100175.19
2022-08-04T16:40:39.003Z,100177.63
2022-08-04T16:43:17.691Z,100179.09
2022-08-04T16:45:47.110Z,100183.97
2022-08-04T16:48:17.760Z,100180.34
2022-08-04T16:51:06.442Z,100180.44
2022-08-04T16:53:53.539Z,100180.31
2022-08-04T16:56:29.588Z,100173.28
2022-08-04T16:58:56.490Z,100176.19
2022-08-04T17:01:33.787Z,100166.94
2022-08-04T17:04:05.100Z,100167.44
2022-08-04T17:06:40.234Z,100170.91
2022-08-04T17:09:11.321Z,100176.94
2022-08-04T17:11:38.117Z,100175.38
2022-08-04T17:14:06.137Z,100174.44
2022-08-04T17:16:38.311Z,100178.41
2022-08-04T17:19:07.167Z,100179.31
2022-08-04T17:21:52.429Z,100180.06
2022-08-04T17:24:18.970Z,100176.72
2022-08-04T17:26:54.527Z,100186.41
2022-08-04T17:29:43.247Z,100183.25
2022-08-04T17:32:20.799Z,100185.97
2022-08-04T17:34:54.452Z,100181.66
2022-08-04T17:37:41.208Z,100187.69
2022-08-04T17:40:22.872Z,100189.13
2022-08-04T17:44:02.979Z,100179.94
2022-08-04T17:46:28.598Z,100181.78
2022-08-04T17:49:09.048Z,100186.44
2022-08-04T17:52:05.235Z,100195.00
2022-08-04T17:54:36.566Z,100179.28
2022-08-04T17:57:20.017Z,100182.00
2022-08-04T18:02:39.064Z,100183.41
2022-08-04T18:05:11.852Z,100180.09
2022-08-04T18:08:39.101Z,100179.91
2022-08-04T18:10:55.353Z,100177.50
2022-08-04T18:13:27.402Z,100179.75
2022-08-04T18:16:02.666Z,100182.34
2022-08-04T18:18:29.870Z,100174.31
2022-08-04T18:20:59.793Z,100189.91
2022-08-04T18:23:32.141Z,100192.63
2022-08-04T18:26:02.058Z,100193.44
2022-08-04T18:28:33.073Z,100193.69
2022-08-04T18:31:00.733Z,100198.91
2022-08-04T18:33:39.489Z,100194.44
2022-08-04T18:36:34.313Z,100197.19
2022-08-04T18:38:58.333Z,100203.25
2022-08-04T18:41:27.167Z,100211.50
2022-08-04T18:43:56.737Z,100209.16
2022-08-04T18:46:26.904Z,100213.25
2022-08-04T18:48:54.591Z,100218.31
2022-08-04T18:51:24.938Z,100218.06
2022-08-04T18:53:58.959Z,100212.94
2022-08-04T18:56:32.896Z,100224.66
2022-08-04T18:59:10.557Z,100216.28
2022-08-04T19:02:12.225Z,100228.34
2022-08-04T19:04:32.458Z,100228.56
2022-08-04T19:07:28.890Z,100229.81
2022-08-04T19:09:52.045Z,100224.91
2022-08-04T19:12:26.569Z,100225.03
2022-08-04T19:15:08.427Z,100234.63
2022-08-04T19:17:54.197Z,100228.13
2022-08-04T19:20:26.328Z,100228.72
2022-08-04T19:24:29.484Z,100228.50
2022-08-04T19:25:58.705Z,100238.13
2022-08-04T19:28:29.818Z,100232.94
2022-08-04T19:30:57.686Z,100240.34
2022-08-04T19:33:25.368Z,100239.28
2022-08-04T19:35:52.418Z,100243.09
2022-08-04T19:38:20.638Z,100246.47
2022-08-04T19:40:50.682Z,100244.03
2022-08-04T19:43:20.886Z,100237.72
2022-08-04T19:45:51.170Z,100245.16
2022-08-04T19:48:19.982Z,100251.41
2022-08-04T19:50:48.259Z,100249.53
2022-08-04T19:53:19.562Z,100255.53
2022-08-04T19:55:49.643Z,100244.75
2022-08-04T19:58:16.870Z,100251.38
2022-08-04T20:00:44.802Z,100258.00
2022-08-04T20:03:20.275Z,100260.75
2022-08-04T20:05:53.475Z,100252.75
2022-08-04T20:08:24.168Z,100258.94
2022-08-04T20:10:52.311Z,100260.63
2022-08-04T20:13:25.514Z,100253.09
2022-08-04T20:16:04.719Z,100261.34
2022-08-04T20:18:36.061Z,100262.06
2022-08-04T20:21:11.253Z,100256.53
2022-08-04T20:23:47.749Z,100261.78
2022-08-04T20:26:15.447Z,100257.09
2022-08-04T20:28:42.250Z,100264.19
2022-08-04T20:31:18.447Z,100266.19
2022-08-04T20:33:49.090Z,100261.00
2022-08-04T20:36:20.276Z,100267.56
2022-08-04T20:38:51.914Z,100258.59
2022-08-04T20:41:20.799Z,100261.44
2022-08-04T20:43:49.756Z,100274.06
2022-08-04T20:46:29.290Z,100273.03
2022-08-04T20:48:56.338Z,100267.63
2022-08-04T20:51:32.193Z,100267.25
2022-08-04T20:54:01.974Z,100273.53
2022-08-04T20:56:30.522Z,100275.72
2022-08-04T20:58:59.437Z,100278.00
2022-08-04T21:01:29.570Z,100267.25
2022-08-04T21:04:27.483Z,100275.16
2022-08-04T21:06:55.396Z,100276.09
2022-08-04T21:09:26.531Z,100272.97
2022-08-04T21:12:06.982Z,100276.84
2022-08-04T21:14:34.580Z,100287.28
2022-08-04T21:17:02.999Z,100283.75
2022-08-04T21:19:31.700Z,100290.16
2022-08-04T21:21:59.166Z,100283.66
2022-08-04T21:24:26.571Z,100288.09
2022-08-04T21:26:56.788Z,100296.78
2022-08-04T21:29:34.541Z,100295.78
2022-08-04T21:32:07.726Z,100304.44
2022-08-04T21:34:39.618Z,100303.88
2022-08-04T21:39:59.325Z,100307.16
2022-08-04T21:42:42.506Z,100309.97
2022-08-04T21:45:09.913Z,100305.59
2022-08-04T21:47:46.561Z,100308.81
2022-08-04T21:50:19.940Z,100305.22
2022-08-04T21:52:47.644Z,100311.78
2022-08-04T21:55:14.182Z,100309.69
2022-08-04T21:57:42.014Z,100322.38
2022-08-04T22:00:10.815Z,100321.56
2022-08-04T22:02:44.820Z,100317.56
2022-08-04T22:05:11.882Z,100321.38
2022-08-04T22:07:50.539Z,100322.66
2022-08-04T22:10:18.463Z,100326.09
2022-08-04T22:12:52.109Z,100325.47
2022-08-04T22:16:02.773Z,100330.56
2022-08-04T22:18:05.568Z,100328.84
2022-08-04T22:20:32.108Z,100332.44
2022-08-04T22:23:15.349Z,100325.06
2022-08-04T22:25:42.163Z,100328.44
2022-08-04T22:28:11.624Z,100332.44
2022-08-04T22:30:48.325Z,100331.38
2022-08-04T22:33:18.921Z,100334.31
2022-08-04T22:35:49.936Z,100330.53
2022-08-04T22:38:36.978Z,100320.84
2022-08-04T22:41:17.696Z,100332.84
2022-08-04T22:43:45.986Z,100333.25
2022-08-04T22:46:26.811Z,100331.78
2022-08-04T22:48:54.405Z,100325.84
2022-08-04T22:51:22.444Z,100322.25
2022-08-04T22:53:50.201Z,100330.03
2022-08-04T22:56:38.124Z,100321.38
2022-08-04T22:59:04.815Z,100327.44
2022-08-04T23:01:57.963Z,100326.41
2022-08-04T23:04:17.911Z,100320.72
2022-08-04T23:06:44.453Z,100324.91
2022-08-04T23:09:15.993Z,100315.03
2022-08-04T23:11:43.770Z,100325.31
2022-08-04T23:14:10.536Z,100313.31
2022-08-04T23:16:40.882Z,100314.38
2022-08-04T23:19:12.159Z,100313.28
2022-08-04T23:21:47.810Z,100321.69
2022-08-04T23:24:29.761Z,100316.34
2022-08-04T23:26:58.023Z,100322.44
2022-08-04T23:29:25.186Z,100314.63
2022-08-04T23:31:59.729Z,100316.50
2022-08-04T23:34:29.179Z,100317.56
2022-08-04T23:36:56.282Z,100316.31
2022-08-04T23:39:25.886Z,100313.75
2022-08-04T23:42:15.002Z,100322.78
2022-08-04T23:44:47.354Z,100324.66
2022-08-04T23:48:15.932Z,100312.03
2022-08-04T23:50:00.626Z,100319.41
2022-08-04T23:52:29.621Z,100312.47
2022-08-04T23:55:00.691Z,100315.19
2022-08-04T23:58:02.263Z,100312.03
